sensor_id;sensor_type;location;lat;lon;timestamp;pressure;altitude;pressure_sealevel;temperature;humidity
22018;BME280;11173;51.050;7.108;2023-04-15T00:02:16;98655.78;;;5.60;52.42
22018;BME280;11173;51.050;7.108;2023-04-15T00:12:17;98649.22;;;5.47;52.20
22018;BME280;11173;51.050;7.108;2023-04-15T00:22:17;98635.06;;;5.41;52.63
22018;BME280;11173;51.050;7.108;2023-04-15T00:32:18;98641.69;;;5.51;52.71
22018;BME280;11173;51.050;7.108;2023-04-15T00:42:19;98632.97;;;5.52;52.90
22018;BME280;11173;51.050;7.108;2023-04-15T00:52:20;98634.91;;;5.55;52.90
22018;BME280;11173;51.050;7.108;2023-04-15T01:02:21;98636.97;;;5.48;52.71
22018;BME280;11173;51.050;7.108;2023-04-15T01:12:23;98635.84;;;5.42;53.11
22018;BME280;11173;51.050;7.108;2023-04-15T01:22:26;98627.22;;;5.32;53.80
22018;BME280;11173;51.050;7.108;2023-04-15T01:32:26;98626.94;;;5.23;54.02
22018;BME280;11173;51.050;7.108;2023-04-15T01:42:27;98637.25;;;5.15;54.54
22018;BME280;11173;51.050;7.108;2023-04-15T01:52:27;98627.47;;;5.07;55.04
22018;BME280;11173;51.050;7.108;2023-04-15T02:02:27;98615.66;;;5.07;54.81
22018;BME280;11173;51.050;7.108;2023-04-15T02:12:28;98616.50;;;4.96;55.50
22018;BME280;11173;51.050;7.108;2023-04-15T02:22:28;98620.13;;;4.90;56.04
22018;BME280;11173;51.050;7.108;2023-04-15T02:32:29;98624.13;;;4.85;56.90
22018;BME280;11173;51.050;7.108;2023-04-15T02:42:29;98633.56;;;4.84;56.91
22018;BME280;11173;51.050;7.108;2023-04-15T02:52:30;98639.94;;;4.77;57.24
22018;BME280;11173;51.050;7.108;2023-04-15T03:02:35;98642.38;;;4.68;58.10
22018;BME280;11173;51.050;7.108;2023-04-15T03:12:36;98646.38;;;4.56;58.43
22018;BME280;11173;51.050;7.108;2023-04-15T03:22:36;98648.81;;;4.47;58.69
22018;BME280;11173;51.050;7.108;2023-04-15T03:32:37;98664.22;;;4.41;58.71
22018;BME280;11173;51.050;7.108;2023-04-15T03:42:38;98660.28;;;4.42;58.81
22018;BME280;11173;51.050;7.108;2023-04-15T03:52:38;98666.22;;;4.33;59.38
22018;BME280;11173;51.050;7.108;2023-04-15T04:02:38;98661.50;;;4.37;59.71
22018;BME280;11173;51.050;7.108;2023-04-15T04:12:39;98668.50;;;4.53;58.66
22018;BME280;11173;51.050;7.108;2023-04-15T04:22:40;98672.41;;;4.55;58.91
22018;BME280;11173;51.050;7.108;2023-04-15T04:32:40;98680.66;;;4.59;58.91
22018;BME280;11173;51.050;7.108;2023-04-15T04:42:40;98686.59;;;4.57;58.79
22018;BME280;11173;51.050;7.108;2023-04-15T04:52:41;98691.28;;;4.61;59.28
22018;BME280;11173;51.050;7.108;2023-04-15T05:02:41;98708.91;;;4.77;58.29
22018;BME280;11173;51.050;7.108;2023-04-15T05:12:43;98712.00;;;4.87;57.42
22018;BME280;11173;51.050;7.108;2023-04-15T05:22:43;98722.66;;;4.85;57.15
22018;BME280;11173;51.050;7.108;2023-04-15T05:32:43;98723.06;;;4.83;57.64
22018;BME280;11173;51.050;7.108;2023-04-15T05:42:44;98738.34;;;4.98;57.89
22018;BME280;11173;51.050;7.108;2023-04-15T05:52:45;98754.84;;;5.58;58.59
22018;BME280;11173;51.050;7.108;2023-04-15T06:02:45;98751.50;;;6.50;56.54
22018;BME280;11173;51.050;7.108;2023-04-15T06:12:46;98760.50;;;7.43;54.74
22018;BME280;11173;51.050;7.108;2023-04-15T06:22:47;98773.22;;;8.07;52.80
22018;BME280;11173;51.050;7.108;2023-04-15T06:32:47;98780.97;;;8.56;52.33
22018;BME280;11173;51.050;7.108;2023-04-15T06:42:47;98790.38;;;8.82;52.14
22018;BME280;11173;51.050;7.108;2023-04-15T06:52:48;98805.66;;;9.10;52.58
22018;BME280;11173;51.050;7.108;2023-04-15T07:02:48;98814.59;;;9.18;52.37
22018;BME280;11173;51.050;7.108;2023-04-15T07:12:49;98829.72;;;9.33;51.13
22018;BME280;11173;51.050;7.108;2023-04-15T07:22:52;98822.72;;;9.62;49.81
22018;BME280;11173;51.050;7.108;2023-04-15T07:32:52;98821.59;;;9.59;48.86
22018;BME280;11173;51.050;7.108;2023-04-15T07:42:55;98859.47;;;9.86;48.24
22018;BME280;11173;51.050;7.108;2023-04-15T07:52:56;98850.69;;;10.04;48.11
22018;BME280;11173;51.050;7.108;2023-04-15T08:02:56;98872.59;;;10.18;47.53
22018;BME280;11173;51.050;7.108;2023-04-15T08:12:58;98878.25;;;9.82;47.58
22018;BME280;11173;51.050;7.108;2023-04-15T08:22:59;98885.38;;;9.66;47.37
22018;BME280;11173;51.050;7.108;2023-04-15T08:32:59;98909.56;;;10.02;47.84
22018;BME280;11173;51.050;7.108;2023-04-15T08:43:01;98913.66;;;10.14;46.66
22018;BME280;11173;51.050;7.108;2023-04-15T08:53:03;98917.53;;;10.49;45.97
22018;BME280;11173;51.050;7.108;2023-04-15T09:03:04;98927.63;;;10.60;45.59
22018;BME280;11173;51.050;7.108;2023-04-15T09:13:06;98943.41;;;10.79;46.08
22018;BME280;11173;51.050;7.108;2023-04-15T09:23:14;98945.78;;;11.10;45.51
22018;BME280;11173;51.050;7.108;2023-04-15T09:33:14;98961.09;;;11.31;46.07
22018;BME280;11173;51.050;7.108;2023-04-15T09:43:15;98962.31;;;11.72;45.79
22018;BME280;11173;51.050;7.108;2023-04-15T09:53:21;98987.19;;;11.66;43.48
22018;BME280;11173;51.050;7.108;2023-04-15T10:03:27;98995.88;;;11.26;45.04
22018;BME280;11173;51.050;7.108;2023-04-15T10:13:30;99005.97;;;11.79;47.18
22018;BME280;11173;51.050;7.108;2023-04-15T10:23:37;99016.34;;;12.42;45.48
22018;BME280;11173;51.050;7.108;2023-04-15T10:33:38;99029.41;;;12.45;45.33
22018;BME280;11173;51.050;7.108;2023-04-15T10:43:39;99031.19;;;12.39;45.08
22018;BME280;11173;51.050;7.108;2023-04-15T10:53:44;99042.13;;;12.59;45.41
22018;BME280;11173;51.050;7.108;2023-04-15T11:03:45;99044.38;;;12.51;45.08
22018;BME280;11173;51.050;7.108;2023-04-15T11:13:50;99049.41;;;12.05;46.38
22018;BME280;11173;51.050;7.108;2023-04-15T11:23:52;98995.22;;;11.64;47.06
22018;BME280;11173;51.050;7.108;2023-04-15T11:33:57;99067.63;;;12.23;47.20
22018;BME280;11173;51.050;7.108;2023-04-15T11:44:15;99078.56;;;12.04;46.83
22018;BME280;11173;51.050;7.108;2023-04-15T11:54:18;99100.22;;;11.58;47.56
22018;BME280;11173;51.050;7.108;2023-04-15T12:04:19;99106.38;;;11.20;48.48
22018;BME280;11173;51.050;7.108;2023-04-15T12:14:25;99121.38;;;10.93;49.30
22018;BME280;11173;51.050;7.108;2023-04-15T12:24:30;99133.72;;;10.60;50.19
22018;BME280;11173;51.050;7.108;2023-04-15T12:34:33;99167.19;;;10.20;51.36
22018;BME280;11173;51.050;7.108;2023-04-15T12:44:34;99174.88;;;9.72;52.59
22018;BME280;11173;51.050;7.108;2023-04-15T12:54:35;99190.22;;;9.60;52.76
22018;BME280;11173;51.050;7.108;2023-04-15T13:04:35;99204.50;;;9.62;52.57
22018;BME280;11173;51.050;7.108;2023-04-15T13:14:36;99214.75;;;9.65;52.53
22018;BME280;11173;51.050;7.108;2023-04-15T13:24:36;99230.66;;;9.65;52.41
22018;BME280;11173;51.050;7.108;2023-04-15T13:34:38;99239.63;;;9.52;52.74
22018;BME280;11173;51.050;7.108;2023-04-15T13:44:38;99258.47;;;9.14;53.18
22018;BME280;11173;51.050;7.108;2023-04-15T13:54:39;99264.88;;;8.80;55.78
22018;BME280;11173;51.050;7.108;2023-04-15T14:04:39;99268.31;;;8.30;57.96
22018;BME280;11173;51.050;7.108;2023-04-15T14:14:40;99280.31;;;8.20;60.81
22018;BME280;11173;51.050;7.108;2023-04-15T14:24:40;99276.22;;;8.31;62.49
22018;BME280;11173;51.050;7.108;2023-04-15T14:34:41;99293.72;;;8.63;63.18
22018;BME280;11173;51.050;7.108;2023-04-15T14:44:41;99301.69;;;8.91;63.36
22018;BME280;11173;51.050;7.108;2023-04-15T14:54:43;99307.25;;;8.91;63.56
22018;BME280;11173;51.050;7.108;2023-04-15T15:04:44;99318.44;;;8.84;64.94
22018;BME280;11173;51.050;7.108;2023-04-15T15:14:44;99334.75;;;8.79;63.88
22018;BME280;11173;51.050;7.108;2023-04-15T15:24:45;99345.81;;;8.48;65.09
22018;BME280;11173;51.050;7.108;2023-04-15T15:34:45;99352.44;;;8.23;66.00
22018;BME280;11173;51.050;7.108;2023-04-15T15:44:45;99365.25;;;8.10;67.11
22018;BME280;11173;51.050;7.108;2023-04-15T15:54:48;99371.69;;;8.00;68.03
22018;BME280;11173;51.050;7.108;2023-04-15T16:04:48;99390.34;;;7.92;68.50
22018;BME280;11173;51.050;7.108;2023-04-15T16:14:51;99394.84;;;7.79;68.72
22018;BME280;11173;51.050;7.108;2023-04-15T16:24:51;99408.75;;;7.68;68.91
22018;BME280;11173;51.050;7.108;2023-04-15T16:34:52;99413.19;;;7.58;69.61
22018;BME280;11173;51.050;7.108;2023-04-15T16:44:52;99422.72;;;7.53;70.67
22018;BME280;11173;51.050;7.108;2023-04-15T16:54:53;99435.38;;;7.58;70.34
22018;BME280;11173;51.050;7.108;2023-04-15T17:04:53;99450.81;;;7.59;70.34
22018;BME280;11173;51.050;7.108;2023-04-15T17:14:53;99459.16;;;7.55;70.74
22018;BME280;11173;51.050;7.108;2023-04-15T17:24:54;99493.16;;;7.63;70.46
22018;BME280;11173;51.050;7.108;2023-04-15T17:34:57;99485.69;;;7.53;70.31
22018;BME280;11173;51.050;7.108;2023-04-15T17:44:57;99496.47;;;7.22;71.27
22018;BME280;11173;51.050;7.108;2023-04-15T17:54:58;99506.00;;;7.25;71.36
22018;BME280;11173;51.050;7.108;2023-04-15T18:04:58;99523.44;;;7.14;71.97
22018;BME280;11173;51.050;7.108;2023-04-15T18:14:59;99537.69;;;7.02;72.28
22018;BME280;11173;51.050;7.108;2023-04-15T18:24:59;99559.50;;;6.96;72.42
22018;BME280;11173;51.050;7.108;2023-04-15T18:35:03;99569.34;;;6.90;72.73
22018;BME280;11173;51.050;7.108;2023-04-15T18:45:04;99574.13;;;6.75;73.59
22018;BME280;11173;51.050;7.108;2023-04-15T18:55:05;99587.97;;;6.79;73.88
22018;BME280;11173;51.050;7.108;2023-04-15T19:05:06;99601.81;;;6.75;74.24
22018;BME280;11173;51.050;7.108;2023-04-15T19:15:07;99611.72;;;6.76;74.07
22018;BME280;11173;51.050;7.108;2023-04-15T19:25:08;99617.66;;;6.79;74.77
22018;BME280;11173;51.050;7.108;2023-04-15T19:35:08;99621.19;;;6.75;74.66
22018;BME280;11173;51.050;7.108;2023-04-15T19:45:09;99652.44;;;6.72;75.06
22018;BME280;11173;51.050;7.108;2023-04-15T19:55:09;99652.44;;;6.72;75.07
22018;BME280;11173;51.050;7.108;2023-04-15T20:05:10;99659.94;;;6.72;75.12
22018;BME280;11173;51.050;7.108;2023-04-15T20:15:10;99672.19;;;6.64;75.40
22018;BME280;11173;51.050;7.108;2023-04-15T20:25:11;99683.28;;;6.64;75.37
22018;BME280;11173;51.050;7.108;2023-04-15T20:35:11;99676.94;;;6.60;75.68
22018;BME280;11173;51.050;7.108;2023-04-15T20:45:11;99688.41;;;6.51;75.79
22018;BME280;11173;51.050;7.108;2023-04-15T20:55:12;99678.09;;;6.41;76.33
22018;BME280;11173;51.050;7.108;2023-04-15T21:05:12;99697.06;;;6.42;75.97
22018;BME280;11173;51.050;7.108;2023-04-15T21:15:13;99690.34;;;6.40;76.34
22018;BME280;11173;51.050;7.108;2023-04-15T21:25:13;99710.09;;;6.38;76.52
22018;BME280;11173;51.050;7.108;2023-04-15T21:35:14;99715.25;;;6.40;76.85
22018;BME280;11173;51.050;7.108;2023-04-15T21:45:14;99714.84;;;6.37;77.04
22018;BME280;11173;51.050;7.108;2023-04-15T21:55:15;99722.75;;;6.39;76.99
22018;BME280;11173;51.050;7.108;2023-04-15T22:05:16;99752.03;;;6.47;76.85
22018;BME280;11173;51.050;7.108;2023-04-15T22:15:16;99755.16;;;6.35;77.14
22018;BME280;11173;51.050;7.108;2023-04-15T22:25:16;99766.25;;;6.42;76.95
22018;BME280;11173;51.050;7.108;2023-04-15T22:35:17;99775.75;;;6.41;77.37
22018;BME280;11173;51.050;7.108;2023-04-15T22:45:17;99775.34;;;6.46;77.23
22018;BME280;11173;51.050;7.108;2023-04-15T22:55:18;99793.94;;;6.49;77.18
22018;BME280;11173;51.050;7.108;2023-04-15T23:05:18;99793.94;;;6.49;77.06
22018;BME280;11173;51.050;7.108;2023-04-15T23:15:18;99813.69;;;6.44;77.35
22018;BME280;11173;51.050;7.108;2023-04-15T23:25:19;99801.44;;;6.45;77.41
22018;BME280;11173;51.050;7.108;2023-04-15T23:35:21;99809.72;;;6.42;77.64
22018;BME280;11173;51.050;7.108;2023-04-15T23:45:30;99808.94;;;6.41;77.86
22018;BME280;11173;51.050;7.108;2023-04-15T23:55:33;99815.69;;;6.47;78.07
